sensor_id;sensor_type;location;lat;lon;timestamp;P1;durP1;ratioP1;P2;durP2;ratioP2
69188;SDS011;56302;52.322;5.926;2023-04-24T00:01:37;3.50;;;1.92;;
69188;SDS011;56302;52.322;5.926;2023-04-24T00:04:04;4.75;;;2.30;;
69188;SDS011;56302;52.322;5.926;2023-04-24T00:06:31;3.80;;;2.17;;
69188;SDS011;56302;52.322;5.926;2023-04-24T00:09:02;3.83;;;2.00;;
69188;SDS011;56302;52.322;5.926;2023-04-24T00:11:28;3.88;;;2.17;;
69188;SDS011;56302;52.322;5.926;2023-04-24T00:13:54;3.05;;;1.88;;
69188;SDS011;56302;52.322;5.926;2023-04-24T00:16:21;3.40;;;2.00;;
69188;SDS011;56302;52.322;5.926;2023-04-24T00:18:47;5.57;;;1.83;;
69188;SDS011;56302;52.322;5.926;2023-04-24T00:21:13;3.55;;;2.40;;
69188;SDS011;56302;52.322;5.926;2023-04-24T00:23:39;3.05;;;1.75;;
69188;SDS011;56302;52.322;5.926;2023-04-24T00:26:05;4.40;;;2.00;;
69188;SDS011;56302;52.322;5.926;2023-04-24T00:28:31;3.17;;;1.70;;
69188;SDS011;56302;52.322;5.926;2023-04-24T00:30:56;2.63;;;1.80;;
69188;SDS011;56302;52.322;5.926;2023-04-24T00:33:22;4.27;;;2.07;;
69188;SDS011;56302;52.322;5.926;2023-04-24T00:35:47;4.05;;;2.00;;
69188;SDS011;56302;52.322;5.926;2023-04-24T00:38:13;4.30;;;2.00;;
69188;SDS011;56302;52.322;5.926;2023-04-24T00:40:38;3.00;;;1.83;;
69188;SDS011;56302;52.322;5.926;2023-04-24T00:43:04;3.00;;;1.88;;
69188;SDS011;56302;52.322;5.926;2023-04-24T00:45:30;4.57;;;2.40;;
69188;SDS011;56302;52.322;5.926;2023-04-24T00:47:56;3.75;;;2.03;;
69188;SDS011;56302;52.322;5.926;2023-04-24T00:50:23;6.63;;;2.35;;
69188;SDS011;56302;52.322;5.926;2023-04-24T00:52:49;3.80;;;2.42;;
69188;SDS011;56302;52.322;5.926;2023-04-24T00:55:15;4.60;;;2.45;;
69188;SDS011;56302;52.322;5.926;2023-04-24T00:57:41;4.93;;;3.00;;
69188;SDS011;56302;52.322;5.926;2023-04-24T01:00:08;4.95;;;2.30;;
69188;SDS011;56302;52.322;5.926;2023-04-24T01:02:40;5.75;;;3.10;;
69188;SDS011;56302;52.322;5.926;2023-04-24T01:05:10;4.88;;;3.03;;
69188;SDS011;56302;52.322;5.926;2023-04-24T01:07:36;4.70;;;2.90;;
69188;SDS011;56302;52.322;5.926;2023-04-24T01:10:03;3.92;;;2.70;;
69188;SDS011;56302;52.322;5.926;2023-04-24T01:12:28;4.40;;;3.22;;
69188;SDS011;56302;52.322;5.926;2023-04-24T01:14:54;4.73;;;2.80;;
69188;SDS011;56302;52.322;5.926;2023-04-24T01:17:21;6.38;;;2.70;;
69188;SDS011;56302;52.322;5.926;2023-04-24T01:19:47;4.10;;;2.90;;
69188;SDS011;56302;52.322;5.926;2023-04-24T01:22:13;5.53;;;2.95;;
69188;SDS011;56302;52.322;5.926;2023-04-24T01:24:39;4.70;;;3.17;;
69188;SDS011;56302;52.322;5.926;2023-04-24T01:27:06;7.28;;;3.53;;
69188;SDS011;56302;52.322;5.926;2023-04-24T01:29:32;5.90;;;3.20;;
69188;SDS011;56302;52.322;5.926;2023-04-24T01:31:57;4.35;;;2.75;;
69188;SDS011;56302;52.322;5.926;2023-04-24T01:34:23;4.80;;;3.60;;
69188;SDS011;56302;52.322;5.926;2023-04-24T01:36:49;4.82;;;3.63;;
69188;SDS011;56302;52.322;5.926;2023-04-24T01:39:15;4.97;;;3.70;;
69188;SDS011;56302;52.322;5.926;2023-04-24T01:41:41;6.25;;;2.90;;
69188;SDS011;56302;52.322;5.926;2023-04-24T01:44:07;4.60;;;3.03;;
69188;SDS011;56302;52.322;5.926;2023-04-24T01:46:33;5.37;;;3.40;;
69188;SDS011;56302;52.322;5.926;2023-04-24T01:49:00;4.60;;;2.92;;
69188;SDS011;56302;52.322;5.926;2023-04-24T01:51:27;4.03;;;2.92;;
69188;SDS011;56302;52.322;5.926;2023-04-24T01:53:52;6.17;;;2.97;;
69188;SDS011;56302;52.322;5.926;2023-04-24T01:56:19;4.63;;;2.88;;
69188;SDS011;56302;52.322;5.926;2023-04-24T01:58:46;7.68;;;3.33;;
69188;SDS011;56302;52.322;5.926;2023-04-24T02:01:19;4.47;;;3.00;;
69188;SDS011;56302;52.322;5.926;2023-04-24T02:03:45;6.47;;;3.55;;
69188;SDS011;56302;52.322;5.926;2023-04-24T02:06:10;4.80;;;3.27;;
69188;SDS011;56302;52.322;5.926;2023-04-24T02:08:36;4.30;;;3.03;;
69188;SDS011;56302;52.322;5.926;2023-04-24T02:11:01;6.07;;;3.77;;
69188;SDS011;56302;52.322;5.926;2023-04-24T02:13:27;5.82;;;3.83;;
69188;SDS011;56302;52.322;5.926;2023-04-24T02:15:53;5.53;;;3.53;;
69188;SDS011;56302;52.322;5.926;2023-04-24T02:18:19;6.53;;;3.72;;
69188;SDS011;56302;52.322;5.926;2023-04-24T02:20:44;6.13;;;3.73;;
69188;SDS011;56302;52.322;5.926;2023-04-24T02:23:10;5.40;;;3.80;;
69188;SDS011;56302;52.322;5.926;2023-04-24T02:25:36;5.03;;;3.53;;
69188;SDS011;56302;52.322;5.926;2023-04-24T02:28:01;8.13;;;4.55;;
69188;SDS011;56302;52.322;5.926;2023-04-24T02:30:27;6.78;;;4.30;;
69188;SDS011;56302;52.322;5.926;2023-04-24T02:32:53;5.90;;;4.13;;
69188;SDS011;56302;52.322;5.926;2023-04-24T02:35:19;7.00;;;4.30;;
69188;SDS011;56302;52.322;5.926;2023-04-24T02:37:44;8.20;;;4.60;;
69188;SDS011;56302;52.322;5.926;2023-04-24T02:40:10;7.03;;;4.83;;
69188;SDS011;56302;52.322;5.926;2023-04-24T02:42:36;7.72;;;4.32;;
69188;SDS011;56302;52.322;5.926;2023-04-24T02:45:01;6.82;;;4.85;;
69188;SDS011;56302;52.322;5.926;2023-04-24T02:47:27;7.10;;;4.40;;
69188;SDS011;56302;52.322;5.926;2023-04-24T02:49:52;6.25;;;4.30;;
69188;SDS011;56302;52.322;5.926;2023-04-24T02:52:18;7.87;;;4.73;;
69188;SDS011;56302;52.322;5.926;2023-04-24T02:54:43;6.50;;;4.10;;
69188;SDS011;56302;52.322;5.926;2023-04-24T02:57:09;8.00;;;5.00;;
69188;SDS011;56302;52.322;5.926;2023-04-24T02:59:34;8.93;;;4.77;;
69188;SDS011;56302;52.322;5.926;2023-04-24T03:02:00;7.53;;;5.00;;
69188;SDS011;56302;52.322;5.926;2023-04-24T03:04:26;7.53;;;5.13;;
69188;SDS011;56302;52.322;5.926;2023-04-24T03:06:52;8.10;;;5.03;;
69188;SDS011;56302;52.322;5.926;2023-04-24T03:09:19;8.27;;;5.15;;
69188;SDS011;56302;52.322;5.926;2023-04-24T03:11:48;8.13;;;4.67;;
69188;SDS011;56302;52.322;5.926;2023-04-24T03:14:14;7.85;;;5.25;;
69188;SDS011;56302;52.322;5.926;2023-04-24T03:16:40;9.30;;;5.40;;
69188;SDS011;56302;52.322;5.926;2023-04-24T03:19:06;8.47;;;5.30;;
69188;SDS011;56302;52.322;5.926;2023-04-24T03:21:31;8.00;;;5.00;;
69188;SDS011;56302;52.322;5.926;2023-04-24T03:23:57;7.53;;;4.77;;
69188;SDS011;56302;52.322;5.926;2023-04-24T03:26:22;6.80;;;4.67;;
69188;SDS011;56302;52.322;5.926;2023-04-24T03:28:48;6.70;;;4.38;;
69188;SDS011;56302;52.322;5.926;2023-04-24T03:31:13;6.47;;;4.23;;
69188;SDS011;56302;52.322;5.926;2023-04-24T03:33:40;8.32;;;4.60;;
69188;SDS011;56302;52.322;5.926;2023-04-24T03:36:06;6.97;;;4.90;;
69188;SDS011;56302;52.322;5.926;2023-04-24T03:38:31;8.52;;;4.60;;
69188;SDS011;56302;52.322;5.926;2023-04-24T03:40:57;8.33;;;4.40;;
69188;SDS011;56302;52.322;5.926;2023-04-24T03:43:22;8.07;;;4.60;;
69188;SDS011;56302;52.322;5.926;2023-04-24T03:45:48;6.97;;;4.43;;
69188;SDS011;56302;52.322;5.926;2023-04-24T03:48:13;13.73;;;4.87;;
69188;SDS011;56302;52.322;5.926;2023-04-24T03:50:39;7.90;;;3.92;;
69188;SDS011;56302;52.322;5.926;2023-04-24T03:53:04;7.30;;;4.10;;
69188;SDS011;56302;52.322;5.926;2023-04-24T03:55:30;6.77;;;4.50;;
69188;SDS011;56302;52.322;5.926;2023-04-24T03:57:55;6.80;;;4.27;;
69188;SDS011;56302;52.322;5.926;2023-04-24T04:00:21;5.70;;;4.00;;
69188;SDS011;56302;52.322;5.926;2023-04-24T04:02:47;8.30;;;4.27;;
69188;SDS011;56302;52.322;5.926;2023-04-24T04:05:12;7.63;;;4.40;;
69188;SDS011;56302;52.322;5.926;2023-04-24T04:07:38;7.22;;;4.22;;
69188;SDS011;56302;52.322;5.926;2023-04-24T04:10:03;5.37;;;3.57;;
69188;SDS011;56302;52.322;5.926;2023-04-24T04:12:29;6.10;;;3.55;;
69188;SDS011;56302;52.322;5.926;2023-04-24T04:14:55;7.47;;;4.03;;
69188;SDS011;56302;52.322;5.926;2023-04-24T04:17:20;8.15;;;3.90;;
69188;SDS011;56302;52.322;5.926;2023-04-24T04:19:46;5.83;;;4.23;;
69188;SDS011;56302;52.322;5.926;2023-04-24T04:22:11;8.10;;;3.87;;
69188;SDS011;56302;52.322;5.926;2023-04-24T04:24:37;5.82;;;3.70;;
69188;SDS011;56302;52.322;5.926;2023-04-24T04:27:05;6.40;;;3.92;;
69188;SDS011;56302;52.322;5.926;2023-04-24T04:29:31;6.43;;;3.50;;
69188;SDS011;56302;52.322;5.926;2023-04-24T04:31:57;6.32;;;4.00;;
69188;SDS011;56302;52.322;5.926;2023-04-24T04:34:23;5.83;;;3.63;;
69188;SDS011;56302;52.322;5.926;2023-04-24T04:36:49;6.10;;;3.53;;
69188;SDS011;56302;52.322;5.926;2023-04-24T04:39:15;7.50;;;3.67;;
69188;SDS011;56302;52.322;5.926;2023-04-24T04:41:41;5.78;;;3.40;;
69188;SDS011;56302;52.322;5.926;2023-04-24T04:44:07;8.18;;;3.40;;
69188;SDS011;56302;52.322;5.926;2023-04-24T04:46:34;6.85;;;3.20;;
69188;SDS011;56302;52.322;5.926;2023-04-24T04:49:00;7.40;;;3.10;;
69188;SDS011;56302;52.322;5.926;2023-04-24T04:51:26;5.60;;;3.20;;
69188;SDS011;56302;52.322;5.926;2023-04-24T04:53:52;6.05;;;3.13;;
69188;SDS011;56302;52.322;5.926;2023-04-24T04:56:17;6.30;;;3.20;;
69188;SDS011;56302;52.322;5.926;2023-04-24T04:58:43;5.22;;;2.80;;
69188;SDS011;56302;52.322;5.926;2023-04-24T05:01:08;6.30;;;2.88;;
69188;SDS011;56302;52.322;5.926;2023-04-24T05:03:34;4.90;;;3.07;;
69188;SDS011;56302;52.322;5.926;2023-04-24T05:06:00;6.72;;;3.30;;
69188;SDS011;56302;52.322;5.926;2023-04-24T05:08:27;6.18;;;2.90;;
69188;SDS011;56302;52.322;5.926;2023-04-24T05:10:52;6.20;;;3.00;;
69188;SDS011;56302;52.322;5.926;2023-04-24T05:13:18;5.75;;;2.75;;
69188;SDS011;56302;52.322;5.926;2023-04-24T05:15:44;5.25;;;2.95;;
69188;SDS011;56302;52.322;5.926;2023-04-24T05:18:10;5.50;;;2.97;;
69188;SDS011;56302;52.322;5.926;2023-04-24T05:20:35;4.53;;;2.80;;
69188;SDS011;56302;52.322;5.926;2023-04-24T05:23:01;5.45;;;3.03;;
69188;SDS011;56302;52.322;5.926;2023-04-24T05:25:26;5.00;;;2.90;;
69188;SDS011;56302;52.322;5.926;2023-04-24T05:27:52;5.70;;;2.90;;
69188;SDS011;56302;52.322;5.926;2023-04-24T05:30:18;7.50;;;2.93;;
69188;SDS011;56302;52.322;5.926;2023-04-24T05:32:44;6.30;;;3.08;;
69188;SDS011;56302;52.322;5.926;2023-04-24T05:35:10;5.13;;;2.83;;
69188;SDS011;56302;52.322;5.926;2023-04-24T05:37:35;7.57;;;3.13;;
69188;SDS011;56302;52.322;5.926;2023-04-24T05:40:01;4.90;;;2.63;;
69188;SDS011;56302;52.322;5.926;2023-04-24T05:42:29;5.28;;;2.30;;
69188;SDS011;56302;52.322;5.926;2023-04-24T05:44:54;4.73;;;2.60;;
69188;SDS011;56302;52.322;5.926;2023-04-24T05:47:20;4.15;;;2.10;;
69188;SDS011;56302;52.322;5.926;2023-04-24T05:49:46;4.97;;;2.08;;
69188;SDS011;56302;52.322;5.926;2023-04-24T05:52:12;4.10;;;2.13;;
69188;SDS011;56302;52.322;5.926;2023-04-24T05:54:38;4.32;;;2.00;;
69188;SDS011;56302;52.322;5.926;2023-04-24T05:57:03;3.97;;;2.30;;
69188;SDS011;56302;52.322;5.926;2023-04-24T05:59:32;4.80;;;1.90;;
69188;SDS011;56302;52.322;5.926;2023-04-24T06:01:59;4.10;;;2.55;;
69188;SDS011;56302;52.322;5.926;2023-04-24T06:04:24;12.40;;;3.37;;
69188;SDS011;56302;52.322;5.926;2023-04-24T06:06:50;5.50;;;2.50;;
69188;SDS011;56302;52.322;5.926;2023-04-24T06:09:20;5.13;;;1.87;;
69188;SDS011;56302;52.322;5.926;2023-04-24T06:11:49;5.25;;;2.10;;
69188;SDS011;56302;52.322;5.926;2023-04-24T06:14:17;5.38;;;2.58;;
69188;SDS011;56302;52.322;5.926;2023-04-24T06:16:42;10.23;;;2.80;;
69188;SDS011;56302;52.322;5.926;2023-04-24T06:19:08;5.15;;;2.55;;
69188;SDS011;56302;52.322;5.926;2023-04-24T06:21:34;5.07;;;2.17;;
69188;SDS011;56302;52.322;5.926;2023-04-24T06:23:59;5.77;;;2.30;;
69188;SDS011;56302;52.322;5.926;2023-04-24T06:26:25;7.45;;;2.28;;
69188;SDS011;56302;52.322;5.926;2023-04-24T06:28:51;5.27;;;2.10;;
69188;SDS011;56302;52.322;5.926;2023-04-24T06:31:18;5.57;;;2.10;;
69188;SDS011;56302;52.322;5.926;2023-04-24T06:33:44;3.67;;;1.85;;
69188;SDS011;56302;52.322;5.926;2023-04-24T06:36:10;6.03;;;2.40;;
69188;SDS011;56302;52.322;5.926;2023-04-24T06:38:37;3.63;;;1.80;;
69188;SDS011;56302;52.322;5.926;2023-04-24T06:41:02;4.43;;;2.13;;
69188;SDS011;56302;52.322;5.926;2023-04-24T06:43:30;3.60;;;1.90;;
69188;SDS011;56302;52.322;5.926;2023-04-24T06:45:56;3.53;;;1.80;;
69188;SDS011;56302;52.322;5.926;2023-04-24T06:48:23;4.25;;;2.13;;
69188;SDS011;56302;52.322;5.926;2023-04-24T06:50:50;3.72;;;1.50;;
69188;SDS011;56302;52.322;5.926;2023-04-24T06:53:15;3.50;;;1.93;;
69188;SDS011;56302;52.322;5.926;2023-04-24T06:55:41;3.20;;;1.53;;
69188;SDS011;56302;52.322;5.926;2023-04-24T06:58:08;4.43;;;1.77;;
69188;SDS011;56302;52.322;5.926;2023-04-24T07:00:33;3.47;;;1.60;;
69188;SDS011;56302;52.322;5.926;2023-04-24T07:02:59;4.90;;;1.70;;
69188;SDS011;56302;52.322;5.926;2023-04-24T07:05:25;4.20;;;1.90;;
69188;SDS011;56302;52.322;5.926;2023-04-24T07:07:50;3.83;;;1.80;;
69188;SDS011;56302;52.322;5.926;2023-04-24T07:10:16;2.83;;;1.60;;
69188;SDS011;56302;52.322;5.926;2023-04-24T07:12:41;2.83;;;1.40;;
69188;SDS011;56302;52.322;5.926;2023-04-24T07:15:07;4.03;;;1.53;;
69188;SDS011;56302;52.322;5.926;2023-04-24T07:17:33;3.25;;;1.80;;
69188;SDS011;56302;52.322;5.926;2023-04-24T07:19:59;4.65;;;1.45;;
69188;SDS011;56302;52.322;5.926;2023-04-24T07:22:26;7.90;;;1.60;;
69188;SDS011;56302;52.322;5.926;2023-04-24T07:24:52;5.40;;;1.70;;
69188;SDS011;56302;52.322;5.926;2023-04-24T07:27:17;5.87;;;2.27;;
69188;SDS011;56302;52.322;5.926;2023-04-24T07:29:43;5.90;;;2.50;;
69188;SDS011;56302;52.322;5.926;2023-04-24T07:32:08;8.30;;;3.63;;
69188;SDS011;56302;52.322;5.926;2023-04-24T07:34:34;7.57;;;3.28;;
69188;SDS011;56302;52.322;5.926;2023-04-24T07:37:00;10.05;;;4.25;;
69188;SDS011;56302;52.322;5.926;2023-04-24T07:39:26;8.52;;;4.68;;
69188;SDS011;56302;52.322;5.926;2023-04-24T07:41:52;9.73;;;4.80;;
69188;SDS011;56302;52.322;5.926;2023-04-24T07:44:18;9.30;;;4.60;;
69188;SDS011;56302;52.322;5.926;2023-04-24T07:46:43;8.17;;;4.33;;
69188;SDS011;56302;52.322;5.926;2023-04-24T07:49:09;8.98;;;4.75;;
69188;SDS011;56302;52.322;5.926;2023-04-24T07:51:35;9.03;;;4.13;;
69188;SDS011;56302;52.322;5.926;2023-04-24T07:54:03;9.88;;;4.57;;
69188;SDS011;56302;52.322;5.926;2023-04-24T07:56:31;12.77;;;5.35;;
69188;SDS011;56302;52.322;5.926;2023-04-24T07:58:57;12.70;;;6.03;;
69188;SDS011;56302;52.322;5.926;2023-04-24T08:01:23;13.90;;;7.20;;
69188;SDS011;56302;52.322;5.926;2023-04-24T08:03:49;16.17;;;6.93;;
69188;SDS011;56302;52.322;5.926;2023-04-24T08:06:14;11.32;;;5.38;;
69188;SDS011;56302;52.322;5.926;2023-04-24T08:08:40;13.77;;;7.13;;
69188;SDS011;56302;52.322;5.926;2023-04-24T08:11:05;15.55;;;6.97;;
69188;SDS011;56302;52.322;5.926;2023-04-24T08:13:31;15.73;;;6.87;;
69188;SDS011;56302;52.322;5.926;2023-04-24T08:15:56;17.00;;;7.77;;
69188;SDS011;56302;52.322;5.926;2023-04-24T08:18:22;14.07;;;6.97;;
69188;SDS011;56302;52.322;5.926;2023-04-24T08:20:48;16.67;;;7.87;;
69188;SDS011;56302;52.322;5.926;2023-04-24T08:23:13;14.50;;;7.00;;
69188;SDS011;56302;52.322;5.926;2023-04-24T08:25:39;15.55;;;6.60;;
69188;SDS011;56302;52.322;5.926;2023-04-24T08:28:05;15.57;;;6.53;;
69188;SDS011;56302;52.322;5.926;2023-04-24T08:30:33;11.57;;;5.77;;
69188;SDS011;56302;52.322;5.926;2023-04-24T08:32:59;17.27;;;6.35;;
69188;SDS011;56302;52.322;5.926;2023-04-24T08:35:24;13.53;;;6.73;;
69188;SDS011;56302;52.322;5.926;2023-04-24T08:37:51;12.17;;;6.27;;
69188;SDS011;56302;52.322;5.926;2023-04-24T08:40:18;12.95;;;5.97;;
69188;SDS011;56302;52.322;5.926;2023-04-24T08:42:52;13.93;;;5.93;;
69188;SDS011;56302;52.322;5.926;2023-04-24T08:45:20;13.25;;;6.93;;
69188;SDS011;56302;52.322;5.926;2023-04-24T08:47:46;15.77;;;6.72;;
69188;SDS011;56302;52.322;5.926;2023-04-24T08:50:12;14.60;;;5.87;;
69188;SDS011;56302;52.322;5.926;2023-04-24T08:52:38;17.55;;;6.68;;
69188;SDS011;56302;52.322;5.926;2023-04-24T08:55:05;14.23;;;6.37;;
69188;SDS011;56302;52.322;5.926;2023-04-24T08:57:31;15.88;;;6.32;;
69188;SDS011;56302;52.322;5.926;2023-04-24T08:59:58;16.20;;;6.30;;
69188;SDS011;56302;52.322;5.926;2023-04-24T09:02:25;13.43;;;6.72;;
69188;SDS011;56302;52.322;5.926;2023-04-24T09:04:50;14.90;;;6.00;;
69188;SDS011;56302;52.322;5.926;2023-04-24T09:07:17;12.68;;;6.07;;
69188;SDS011;56302;52.322;5.926;2023-04-24T09:09:43;15.68;;;5.82;;
69188;SDS011;56302;52.322;5.926;2023-04-24T09:12:09;12.45;;;6.25;;
69188;SDS011;56302;52.322;5.926;2023-04-24T09:14:35;15.60;;;6.15;;
69188;SDS011;56302;52.322;5.926;2023-04-24T09:17:04;10.63;;;5.22;;
69188;SDS011;56302;52.322;5.926;2023-04-24T09:19:31;17.08;;;6.03;;
69188;SDS011;56302;52.322;5.926;2023-04-24T09:21:56;16.80;;;5.47;;
69188;SDS011;56302;52.322;5.926;2023-04-24T09:24:22;15.68;;;5.22;;
69188;SDS011;56302;52.322;5.926;2023-04-24T09:26:48;14.82;;;4.60;;
69188;SDS011;56302;52.322;5.926;2023-04-24T09:29:20;11.60;;;4.22;;
69188;SDS011;56302;52.322;5.926;2023-04-24T09:31:46;9.93;;;4.30;;
69188;SDS011;56302;52.322;5.926;2023-04-24T09:34:11;9.60;;;3.43;;
69188;SDS011;56302;52.322;5.926;2023-04-24T09:36:38;12.07;;;3.60;;
69188;SDS011;56302;52.322;5.926;2023-04-24T09:39:06;8.45;;;3.42;;
69188;SDS011;56302;52.322;5.926;2023-04-24T09:41:43;9.73;;;3.07;;
69188;SDS011;56302;52.322;5.926;2023-04-24T09:44:13;8.52;;;2.97;;
69188;SDS011;56302;52.322;5.926;2023-04-24T09:46:41;6.85;;;2.60;;
69188;SDS011;56302;52.322;5.926;2023-04-24T09:49:07;6.50;;;2.35;;
69188;SDS011;56302;52.322;5.926;2023-04-24T09:51:38;9.05;;;2.92;;
69188;SDS011;56302;52.322;5.926;2023-04-24T09:54:05;7.63;;;2.57;;
69188;SDS011;56302;52.322;5.926;2023-04-24T09:56:46;8.38;;;2.65;;
69188;SDS011;56302;52.322;5.926;2023-04-24T09:59:14;9.88;;;2.88;;
69188;SDS011;56302;52.322;5.926;2023-04-24T10:01:41;9.77;;;2.63;;
69188;SDS011;56302;52.322;5.926;2023-04-24T10:04:16;11.95;;;2.75;;
69188;SDS011;56302;52.322;5.926;2023-04-24T10:06:47;21.77;;;3.17;;
69188;SDS011;56302;52.322;5.926;2023-04-24T10:09:14;10.07;;;2.10;;
69188;SDS011;56302;52.322;5.926;2023-04-24T10:11:44;11.80;;;2.97;;
69188;SDS011;56302;52.322;5.926;2023-04-24T10:14:12;13.23;;;2.75;;
69188;SDS011;56302;52.322;5.926;2023-04-24T10:16:39;7.82;;;2.30;;
69188;SDS011;56302;52.322;5.926;2023-04-24T10:19:05;13.37;;;2.63;;
69188;SDS011;56302;52.322;5.926;2023-04-24T10:21:32;9.70;;;2.92;;
69188;SDS011;56302;52.322;5.926;2023-04-24T10:23:58;10.88;;;2.65;;
69188;SDS011;56302;52.322;5.926;2023-04-24T10:26:28;10.70;;;2.85;;
69188;SDS011;56302;52.322;5.926;2023-04-24T10:28:54;15.63;;;2.73;;
69188;SDS011;56302;52.322;5.926;2023-04-24T10:31:22;10.23;;;2.20;;
69188;SDS011;56302;52.322;5.926;2023-04-24T10:33:49;8.27;;;2.30;;
69188;SDS011;56302;52.322;5.926;2023-04-24T10:36:16;8.10;;;2.45;;
69188;SDS011;56302;52.322;5.926;2023-04-24T10:38:42;7.03;;;1.95;;
69188;SDS011;56302;52.322;5.926;2023-04-24T10:41:11;10.30;;;2.37;;
69188;SDS011;56302;52.322;5.926;2023-04-24T10:43:44;10.98;;;2.17;;
69188;SDS011;56302;52.322;5.926;2023-04-24T10:46:10;9.73;;;1.95;;
69188;SDS011;56302;52.322;5.926;2023-04-24T10:48:44;9.57;;;2.17;;
69188;SDS011;56302;52.322;5.926;2023-04-24T10:51:19;8.63;;;2.30;;
69188;SDS011;56302;52.322;5.926;2023-04-24T10:53:47;10.30;;;2.25;;
69188;SDS011;56302;52.322;5.926;2023-04-24T10:56:15;10.02;;;1.73;;
69188;SDS011;56302;52.322;5.926;2023-04-24T10:58:42;7.60;;;1.92;;
69188;SDS011;56302;52.322;5.926;2023-04-24T11:01:26;8.45;;;2.53;;
69188;SDS011;56302;52.322;5.926;2023-04-24T11:03:56;5.53;;;2.17;;
69188;SDS011;56302;52.322;5.926;2023-04-24T11:06:33;7.88;;;2.40;;
69188;SDS011;56302;52.322;5.926;2023-04-24T11:09:05;8.20;;;2.28;;
69188;SDS011;56302;52.322;5.926;2023-04-24T11:11:32;10.48;;;2.13;;
69188;SDS011;56302;52.322;5.926;2023-04-24T11:26:58;8.35;;;2.20;;
69188;SDS011;56302;52.322;5.926;2023-04-24T11:37:36;10.43;;;2.22;;
69188;SDS011;56302;52.322;5.926;2023-04-24T11:40:03;6.53;;;2.30;;
69188;SDS011;56302;52.322;5.926;2023-04-24T11:42:34;4.43;;;1.50;;
69188;SDS011;56302;52.322;5.926;2023-04-24T11:45:10;6.40;;;1.30;;
69188;SDS011;56302;52.322;5.926;2023-04-24T11:47:37;4.93;;;1.23;;
69188;SDS011;56302;52.322;5.926;2023-04-24T11:50:04;5.55;;;1.20;;
69188;SDS011;56302;52.322;5.926;2023-04-24T11:52:31;5.20;;;1.20;;
69188;SDS011;56302;52.322;5.926;2023-04-24T11:55:01;3.33;;;1.30;;
69188;SDS011;56302;52.322;5.926;2023-04-24T11:57:29;5.22;;;1.17;;
69188;SDS011;56302;52.322;5.926;2023-04-24T12:00:02;5.30;;;1.27;;
69188;SDS011;56302;52.322;5.926;2023-04-24T12:02:30;3.92;;;1.40;;
69188;SDS011;56302;52.322;5.926;2023-04-24T12:04:55;3.30;;;1.27;;
69188;SDS011;56302;52.322;5.926;2023-04-24T12:07:22;5.40;;;1.43;;
69188;SDS011;56302;52.322;5.926;2023-04-24T12:09:48;5.07;;;1.50;;
69188;SDS011;56302;52.322;5.926;2023-04-24T12:12:27;5.95;;;1.23;;
69188;SDS011;56302;52.322;5.926;2023-04-24T12:14:57;4.93;;;1.37;;
69188;SDS011;56302;52.322;5.926;2023-04-24T12:17:24;7.35;;;1.73;;
69188;SDS011;56302;52.322;5.926;2023-04-24T12:19:57;7.28;;;1.60;;
69188;SDS011;56302;52.322;5.926;2023-04-24T12:22:46;5.03;;;1.60;;
69188;SDS011;56302;52.322;5.926;2023-04-24T12:25:19;4.85;;;1.63;;
69188;SDS011;56302;52.322;5.926;2023-04-24T12:27:51;7.13;;;1.58;;
69188;SDS011;56302;52.322;5.926;2023-04-24T12:30:18;2.42;;;0.80;;
69188;SDS011;56302;52.322;5.926;2023-04-24T12:32:45;4.63;;;1.35;;
69188;SDS011;56302;52.322;5.926;2023-04-24T12:35:18;2.72;;;1.25;;
69188;SDS011;56302;52.322;5.926;2023-04-24T12:37:46;3.85;;;1.20;;
69188;SDS011;56302;52.322;5.926;2023-04-24T12:40:11;5.53;;;1.08;;
69188;SDS011;56302;52.322;5.926;2023-04-24T12:42:44;4.78;;;1.08;;
69188;SDS011;56302;52.322;5.926;2023-04-24T12:45:11;2.55;;;0.93;;
69188;SDS011;56302;52.322;5.926;2023-04-24T12:47:37;4.43;;;0.93;;
69188;SDS011;56302;52.322;5.926;2023-04-24T12:50:04;3.97;;;1.00;;
69188;SDS011;56302;52.322;5.926;2023-04-24T12:52:30;3.85;;;1.20;;
69188;SDS011;56302;52.322;5.926;2023-04-24T12:54:57;5.45;;;1.10;;
69188;SDS011;56302;52.322;5.926;2023-04-24T12:57:25;3.07;;;0.87;;
69188;SDS011;56302;52.322;5.926;2023-04-24T12:59:55;5.07;;;1.20;;
69188;SDS011;56302;52.322;5.926;2023-04-24T13:02:22;4.88;;;1.45;;
69188;SDS011;56302;52.322;5.926;2023-04-24T13:04:48;4.80;;;1.10;;
69188;SDS011;56302;52.322;5.926;2023-04-24T13:07:15;3.42;;;0.95;;
69188;SDS011;56302;52.322;5.926;2023-04-24T13:09:41;3.77;;;1.00;;
69188;SDS011;56302;52.322;5.926;2023-04-24T13:12:07;4.63;;;1.30;;
69188;SDS011;56302;52.322;5.926;2023-04-24T13:14:33;3.85;;;1.20;;
69188;SDS011;56302;52.322;5.926;2023-04-24T13:16:59;2.85;;;0.93;;
69188;SDS011;56302;52.322;5.926;2023-04-24T13:19:25;3.57;;;1.00;;
69188;SDS011;56302;52.322;5.926;2023-04-24T13:21:52;5.97;;;1.00;;
69188;SDS011;56302;52.322;5.926;2023-04-24T13:24:20;4.85;;;1.38;;
69188;SDS011;56302;52.322;5.926;2023-04-24T13:26:45;4.50;;;1.10;;
69188;SDS011;56302;52.322;5.926;2023-04-24T13:29:11;5.87;;;1.00;;
69188;SDS011;56302;52.322;5.926;2023-04-24T13:31:36;5.07;;;0.93;;
69188;SDS011;56302;52.322;5.926;2023-04-24T13:34:02;6.17;;;1.40;;
69188;SDS011;56302;52.322;5.926;2023-04-24T13:36:28;6.22;;;1.30;;
69188;SDS011;56302;52.322;5.926;2023-04-24T13:38:55;4.90;;;1.30;;
69188;SDS011;56302;52.322;5.926;2023-04-24T13:41:20;5.20;;;1.43;;
69188;SDS011;56302;52.322;5.926;2023-04-24T13:43:46;6.23;;;1.50;;
69188;SDS011;56302;52.322;5.926;2023-04-24T13:46:12;5.93;;;1.55;;
69188;SDS011;56302;52.322;5.926;2023-04-24T13:48:37;7.97;;;1.77;;
69188;SDS011;56302;52.322;5.926;2023-04-24T13:51:03;10.23;;;1.63;;
69188;SDS011;56302;52.322;5.926;2023-04-24T13:53:28;5.72;;;1.90;;
69188;SDS011;56302;52.322;5.926;2023-04-24T13:55:54;9.03;;;2.07;;
69188;SDS011;56302;52.322;5.926;2023-04-24T13:58:19;8.85;;;2.00;;
69188;SDS011;56302;52.322;5.926;2023-04-24T14:00:45;7.75;;;2.17;;
69188;SDS011;56302;52.322;5.926;2023-04-24T14:03:11;9.30;;;2.38;;
69188;SDS011;56302;52.322;5.926;2023-04-24T14:05:36;7.03;;;2.10;;
69188;SDS011;56302;52.322;5.926;2023-04-24T14:08:02;12.63;;;2.87;;
69188;SDS011;56302;52.322;5.926;2023-04-24T14:10:27;9.88;;;2.20;;
69188;SDS011;56302;52.322;5.926;2023-04-24T14:12:53;10.47;;;1.87;;
69188;SDS011;56302;52.322;5.926;2023-04-24T14:15:19;6.20;;;2.10;;
69188;SDS011;56302;52.322;5.926;2023-04-24T14:17:44;10.50;;;1.95;;
69188;SDS011;56302;52.322;5.926;2023-04-24T14:20:12;9.57;;;2.27;;
69188;SDS011;56302;52.322;5.926;2023-04-24T14:22:38;11.10;;;2.50;;
69188;SDS011;56302;52.322;5.926;2023-04-24T14:25:04;11.20;;;2.67;;
69188;SDS011;56302;52.322;5.926;2023-04-24T14:27:31;12.27;;;2.33;;
69188;SDS011;56302;52.322;5.926;2023-04-24T14:29:57;8.77;;;2.13;;
69188;SDS011;56302;52.322;5.926;2023-04-24T14:32:22;12.53;;;2.13;;
69188;SDS011;56302;52.322;5.926;2023-04-24T14:34:48;7.65;;;1.75;;
69188;SDS011;56302;52.322;5.926;2023-04-24T14:37:14;9.73;;;2.47;;
69188;SDS011;56302;52.322;5.926;2023-04-24T14:39:40;7.90;;;2.45;;
69188;SDS011;56302;52.322;5.926;2023-04-24T14:42:05;8.97;;;2.63;;
69188;SDS011;56302;52.322;5.926;2023-04-24T14:44:31;10.00;;;2.22;;
69188;SDS011;56302;52.322;5.926;2023-04-24T14:46:57;7.50;;;2.10;;
69188;SDS011;56302;52.322;5.926;2023-04-24T14:49:23;13.93;;;2.60;;
69188;SDS011;56302;52.322;5.926;2023-04-24T14:51:49;9.55;;;2.55;;
69188;SDS011;56302;52.322;5.926;2023-04-24T14:54:14;7.93;;;2.17;;
69188;SDS011;56302;52.322;5.926;2023-04-24T14:56:40;6.87;;;1.70;;
69188;SDS011;56302;52.322;5.926;2023-04-24T14:59:07;9.32;;;2.35;;
69188;SDS011;56302;52.322;5.926;2023-04-24T15:01:33;7.78;;;1.67;;
69188;SDS011;56302;52.322;5.926;2023-04-24T15:03:58;9.20;;;1.97;;